createdAt,value
2018-01-29T00:00:35.256Z,92.70
2018-01-29T00:03:03.892Z,92.70
2018-01-29T00:05:32.572Z,92.50
2018-01-29T00:08:01.286Z,92.40
2018-01-29T00:10:29.925Z,92.40
2018-01-29T00:12:58.580Z,92.40
2018-01-29T00:15:27.984Z,92.70
2018-01-29T00:17:57.388Z,92.70
2018-01-29T00:20:26.812Z,92.60
2018-01-29T00:22:55.448Z,92.60
2018-01-29T00:25:24.100Z,92.60
2018-01-29T00:27:52.793Z,92.60
2018-01-29T00:30:21.480Z,92.80
2018-01-29T00:32:50.144Z,92.80
2018-01-29T00:35:18.779Z,92.70
2018-01-29T00:37:47.444Z,92.80
2018-01-29T00:40:16.085Z,92.70
2018-01-29T00:42:45.495Z,92.60
2018-01-29T00:45:14.143Z,92.60
2018-01-29T00:47:42.589Z,93.10
2018-01-29T00:50:11.044Z,93.20
2018-01-29T00:52:39.732Z,93.30
2018-01-29T00:55:07.720Z,93.40
2018-01-29T00:57:36.368Z,93.20
2018-01-29T01:00:05.486Z,93.00
2018-01-29T01:02:34.123Z,93.00
2018-01-29T01:05:02.445Z,92.80
2018-01-29T01:07:31.101Z,92.80
2018-01-29T01:09:59.765Z,92.60
2018-01-29T01:12:28.420Z,92.70
2018-01-29T01:14:57.092Z,92.70
2018-01-29T01:17:25.736Z,92.90
2018-01-29T01:19:54.389Z,92.80
2018-01-29T01:22:23.093Z,92.90
2018-01-29T01:24:51.740Z,92.80
2018-01-29T01:27:20.060Z,92.80
2018-01-29T01:29:48.748Z,92.90
2018-01-29T01:32:17.413Z,92.90
2018-01-29T01:34:46.058Z,92.90
2018-01-29T01:37:15.504Z,93.10
2018-01-29T01:39:44.148Z,93.10
2018-01-29T01:42:13.380Z,93.00
2018-01-29T01:44:42.064Z,93.00
2018-01-29T01:47:10.736Z,93.00
2018-01-29T01:49:39.388Z,93.10
2018-01-29T01:52:07.704Z,93.10
2018-01-29T01:54:36.375Z,93.20
2018-01-29T01:57:05.789Z,93.30
2018-01-29T01:59:34.425Z,93.30
2018-01-29T02:02:03.092Z,93.50
2018-01-29T02:04:31.734Z,93.40
2018-01-29T02:07:00.380Z,93.30
2018-01-29T02:09:29.057Z,93.30
2018-01-29T02:11:57.704Z,93.30
2018-01-29T02:14:27.116Z,93.30
2018-01-29T02:16:55.772Z,93.30
2018-01-29T02:19:24.555Z,93.30
2018-01-29T02:21:52.883Z,93.20
2018-01-29T02:24:22.296Z,93.20
2018-01-29T02:26:50.960Z,93.20
2018-01-29T02:29:19.627Z,93.20
2018-01-29T02:31:49.032Z,93.60
2018-01-29T02:34:18.436Z,93.70
2018-01-29T02:36:47.367Z,93.70
2018-01-29T02:39:15.996Z,93.60
2018-01-29T02:41:44.643Z,93.60
2018-01-29T02:44:13.292Z,93.60
2018-01-29T02:46:41.775Z,93.60
2018-01-29T02:49:11.025Z,93.70
2018-01-29T02:51:39.496Z,93.70
2018-01-29T02:54:07.950Z,93.70
2018-01-29T02:56:37.233Z,93.60
2018-01-29T02:59:06.512Z,93.60
2018-01-29T03:01:35.156Z,93.60
2018-01-29T03:04:03.605Z,93.60
2018-01-29T03:06:33.088Z,93.70
2018-01-29T03:09:01.729Z,93.70
2018-01-29T03:11:30.370Z,93.60
2018-01-29T03:13:59.070Z,93.60
2018-01-29T03:16:27.853Z,93.60
2018-01-29T03:18:56.480Z,93.60
2018-01-29T03:21:25.120Z,93.70
2018-01-29T03:23:53.775Z,93.60
2018-01-29T03:26:22.440Z,93.60
2018-01-29T03:28:51.079Z,93.60
2018-01-29T03:31:19.708Z,93.60
2018-01-29T03:33:48.364Z,93.80
2018-01-29T03:36:17.761Z,93.90
2018-01-29T03:38:46.400Z,93.80
2018-01-29T03:41:15.072Z,93.80
2018-01-29T03:43:43.700Z,93.70
2018-01-29T03:46:12.340Z,93.80
2018-01-29T03:48:41.092Z,93.80
2018-01-29T03:51:09.720Z,93.90
2018-01-29T03:53:38.349Z,94.00
2018-01-29T03:56:07.008Z,94.00
2018-01-29T03:58:35.644Z,93.90
2018-01-29T04:01:05.037Z,93.80
2018-01-29T04:03:33.687Z,94.10
2018-01-29T04:06:02.355Z,93.80
2018-01-29T04:08:30.995Z,93.80
2018-01-29T04:10:59.619Z,94.00
2018-01-29T04:13:28.300Z,93.80
2018-01-29T04:15:56.932Z,93.90
2018-01-29T04:18:25.313Z,94.20
2018-01-29T04:20:54.029Z,94.20
2018-01-29T04:23:23.432Z,93.80
2018-01-29T04:25:52.866Z,93.70
2018-01-29T04:28:21.700Z,93.70
2018-01-29T04:30:50.375Z,93.70
2018-01-29T04:33:19.017Z,93.70
2018-01-29T04:35:47.660Z,93.80
2018-01-29T04:38:16.328Z,93.90
2018-01-29T04:40:44.963Z,93.80
2018-01-29T04:43:14.367Z,93.80
2018-01-29T04:45:44.063Z,94.00
2018-01-29T04:48:12.688Z,94.00
2018-01-29T04:50:41.335Z,93.80
2018-01-29T04:53:10.546Z,94.00
2018-01-29T04:55:39.957Z,93.80
2018-01-29T04:58:09.384Z,94.10
2018-01-29T05:00:38.008Z,93.80
2018-01-29T05:03:06.652Z,93.80
2018-01-29T05:05:35.312Z,93.90
2018-01-29T05:08:04.372Z,94.00
2018-01-29T05:10:32.999Z,94.00
2018-01-29T05:13:02.424Z,94.00
2018-01-29T05:15:31.058Z,94.10
2018-01-29T05:17:59.810Z,94.20
2018-01-29T05:20:28.453Z,94.20
2018-01-29T05:22:57.269Z,94.20
2018-01-29T05:25:25.937Z,94.20
2018-01-29T05:27:54.632Z,94.20
2018-01-29T05:30:23.316Z,94.20
2018-01-29T05:32:51.956Z,94.20
2018-01-29T05:38:47.464Z,94.00
2018-01-29T05:41:15.948Z,93.90
2018-01-29T05:43:44.392Z,94.10
2018-01-29T05:46:13.785Z,94.10
2018-01-29T05:48:42.263Z,94.10
2018-01-29T05:51:10.052Z,94.10
2018-01-29T05:53:38.493Z,94.10
2018-01-29T05:56:07.136Z,94.00
2018-01-29T05:58:35.759Z,93.90
2018-01-29T06:01:04.390Z,94.00
2018-01-29T06:03:33.036Z,94.10
2018-01-29T06:06:01.676Z,94.10
2018-01-29T06:08:30.368Z,94.20
2018-01-29T06:10:58.676Z,94.10
2018-01-29T06:13:27.360Z,94.00
2018-01-29T06:15:56.024Z,94.10
2018-01-29T06:18:24.655Z,94.10
2018-01-29T06:20:53.299Z,94.10
2018-01-29T06:23:21.620Z,94.20
2018-01-29T06:25:50.257Z,94.20
2018-01-29T06:28:18.912Z,94.30
2018-01-29T06:30:48.368Z,94.30
2018-01-29T06:33:17.061Z,94.30
2018-01-29T06:35:45.748Z,94.20
2018-01-29T06:38:14.437Z,94.20
2018-01-29T06:40:43.128Z,94.40
2018-01-29T06:43:11.797Z,94.40
2018-01-29T06:45:40.452Z,94.30
2018-01-29T06:48:09.876Z,94.30
2018-01-29T06:50:38.557Z,94.20
2018-01-29T06:53:07.074Z,94.30
2018-01-29T06:55:35.822Z,94.30
2018-01-29T06:58:04.542Z,94.40
2018-01-29T07:00:33.492Z,94.50
2018-01-29T07:03:02.354Z,94.60
2018-01-29T07:05:31.353Z,94.70
2018-01-29T07:08:00.971Z,94.80
2018-01-29T07:10:30.665Z,94.70
2018-01-29T07:12:59.333Z,94.70
2018-01-29T07:15:28.025Z,94.70
2018-01-29T07:17:57.708Z,94.80
2018-01-29T07:20:26.372Z,94.70
2018-01-29T07:22:55.040Z,94.70
2018-01-29T07:25:23.980Z,94.90
2018-01-29T07:27:52.675Z,95.00
2018-01-29T07:30:21.197Z,95.00
2018-01-29T07:32:49.888Z,95.00
2018-01-29T07:35:19.365Z,94.90
2018-01-29T07:37:48.024Z,94.90
2018-01-29T07:40:16.696Z,94.80
2018-01-29T07:42:45.355Z,94.90
2018-01-29T07:45:15.041Z,94.90
2018-01-29T07:47:43.078Z,94.90
2018-01-29T07:50:11.773Z,95.00
2018-01-29T07:52:40.664Z,95.10
2018-01-29T07:55:09.420Z,95.20
2018-01-29T07:57:38.074Z,95.20
2018-01-29T08:00:06.766Z,95.30
2018-01-29T08:02:35.432Z,95.40
2018-01-29T08:05:03.761Z,95.80
2018-01-29T08:07:32.429Z,96.50
2018-01-29T08:10:01.098Z,98.00
2018-01-29T08:12:29.742Z,99.70
2018-01-29T08:14:58.414Z,99.90
2018-01-29T08:17:27.153Z,99.90
2018-01-29T08:19:55.809Z,99.90
2018-01-29T08:22:24.501Z,96.40
2018-01-29T08:24:53.153Z,94.60
2018-01-29T08:27:21.790Z,94.60
2018-01-29T08:29:50.465Z,95.20
2018-01-29T08:32:19.112Z,95.80
2018-01-29T08:34:47.757Z,96.10
2018-01-29T08:37:16.401Z,96.10
2018-01-29T08:39:45.048Z,96.40
2018-01-29T08:42:14.465Z,97.40
2018-01-29T08:44:42.957Z,97.40
2018-01-29T08:47:11.415Z,99.90
2018-01-29T08:49:40.065Z,99.90
2018-01-29T08:52:09.241Z,81.80
2018-01-29T08:54:37.625Z,81.00
2018-01-29T08:57:06.005Z,57.30
2018-01-29T08:59:34.413Z,57.50
2018-01-29T09:02:03.557Z,50.50
2018-01-29T09:04:31.941Z,50.30
2018-01-29T09:07:00.351Z,46.50
2018-01-29T09:09:28.742Z,42.60
2018-01-29T09:11:57.952Z,39.50
2018-01-29T09:14:27.155Z,38.00
2018-01-29T09:16:55.558Z,37.90
2018-01-29T09:19:24.013Z,38.70
2018-01-29T09:21:53.178Z,38.00
2018-01-29T09:24:21.594Z,37.80
2018-01-29T09:26:50.766Z,37.50
2018-01-29T09:29:19.166Z,37.40
2018-01-29T09:31:48.342Z,36.00
2018-01-29T09:34:16.762Z,36.00
2018-01-29T09:36:45.166Z,33.70
2018-01-29T09:39:14.327Z,34.80
2018-01-29T09:41:42.746Z,34.30
2018-01-29T09:44:11.130Z,33.40
2018-01-29T09:46:39.526Z,33.40
2018-01-29T09:49:07.758Z,33.40
2018-01-29T09:51:36.140Z,31.30
2018-01-29T09:54:04.526Z,31.40
2018-01-29T09:56:32.934Z,30.30
2018-01-29T09:59:01.318Z,28.30
2018-01-29T10:01:29.745Z,29.90
2018-01-29T10:03:58.902Z,30.30
2018-01-29T10:06:27.294Z,30.20
2018-01-29T10:08:55.741Z,30.80
2018-01-29T10:11:24.161Z,29.90
2018-01-29T10:13:52.553Z,29.40
2018-01-29T10:16:21.765Z,28.40
2018-01-29T10:18:50.908Z,28.80
2018-01-29T10:21:19.285Z,28.80
2018-01-29T10:23:47.713Z,27.30
2018-01-29T10:26:16.852Z,26.00
2018-01-29T10:28:45.225Z,26.00
2018-01-29T10:31:13.624Z,27.20
2018-01-29T10:33:41.998Z,26.50
2018-01-29T10:36:10.365Z,26.20
2018-01-29T10:38:38.757Z,26.60
2018-01-29T10:41:07.138Z,26.20
2018-01-29T10:43:35.540Z,25.30
2018-01-29T10:46:04.106Z,25.00
2018-01-29T10:48:32.481Z,24.70
2018-01-29T10:51:00.849Z,26.20
2018-01-29T10:53:29.240Z,27.00
2018-01-29T10:55:57.619Z,27.80
2018-01-29T10:58:26.001Z,26.80
2018-01-29T11:01:09.996Z,27.20
2018-01-29T11:03:39.141Z,26.10
2018-01-29T11:06:07.557Z,26.10
2018-01-29T11:08:35.929Z,27.90
2018-01-29T11:11:04.304Z,28.90
2018-01-29T11:13:32.718Z,28.70
2018-01-29T11:16:01.100Z,28.30
2018-01-29T11:18:29.472Z,30.30
2018-01-29T11:20:57.911Z,29.70
2018-01-29T11:23:26.380Z,28.80
2018-01-29T11:25:54.754Z,27.70
2018-01-29T11:28:23.157Z,27.20
2018-01-29T11:30:51.528Z,26.30
2018-01-29T11:33:19.904Z,26.20
2018-01-29T11:35:48.294Z,25.10
2018-01-29T11:38:16.664Z,26.40
2018-01-29T11:40:45.060Z,27.40
2018-01-29T11:43:13.434Z,27.50
2018-01-29T11:45:41.804Z,27.80
2018-01-29T11:48:10.200Z,27.80
2018-01-29T11:50:38.568Z,28.80
2018-01-29T11:53:06.940Z,28.30
2018-01-29T11:55:35.323Z,28.80
2018-01-29T11:58:03.690Z,28.80
2018-01-29T12:00:32.077Z,28.80
2018-01-29T12:03:00.457Z,27.30
2018-01-29T12:05:28.824Z,27.00
2018-01-29T12:07:57.194Z,26.70
2018-01-29T12:10:25.587Z,25.70
2018-01-29T12:12:53.985Z,24.60
2018-01-29T12:15:22.536Z,24.70
2018-01-29T12:17:50.946Z,25.00
2018-01-29T12:20:19.313Z,24.70
2018-01-29T12:22:47.687Z,25.60
2018-01-29T12:25:16.092Z,26.00
2018-01-29T12:27:44.472Z,26.90
2018-01-29T12:30:12.177Z,27.00
2018-01-29T12:32:41.337Z,26.80
2018-01-29T12:35:09.735Z,26.90
2018-01-29T12:37:38.120Z,27.30
2018-01-29T12:40:06.485Z,26.40
2018-01-29T12:42:34.890Z,26.70
2018-01-29T12:45:03.265Z,26.70
2018-01-29T12:47:31.672Z,25.80
2018-01-29T12:50:00.494Z,24.90
2018-01-29T12:52:28.862Z,24.90
2018-01-29T12:54:57.253Z,24.70
2018-01-29T12:57:25.621Z,23.90
2018-01-29T12:59:53.999Z,23.70
2018-01-29T13:02:22.457Z,24.20
2018-01-29T13:04:51.600Z,24.40
2018-01-29T13:07:20.005Z,24.40
2018-01-29T13:09:48.406Z,24.40
2018-01-29T13:12:17.625Z,24.60
2018-01-29T13:14:46.002Z,24.60
2018-01-29T13:17:14.387Z,24.30
2018-01-29T13:19:42.809Z,24.30
2018-01-29T13:22:11.247Z,24.40
2018-01-29T13:24:39.643Z,24.50
2018-01-29T13:27:08.062Z,24.80
2018-01-29T13:29:36.477Z,24.40
2018-01-29T13:32:04.548Z,25.10
2018-01-29T13:34:32.960Z,24.80
2018-01-29T13:37:02.117Z,24.30
2018-01-29T13:39:31.265Z,24.70
2018-01-29T13:41:59.686Z,24.70
2018-01-29T13:44:28.079Z,24.90
2018-01-29T13:46:56.577Z,25.10
2018-01-29T13:49:24.974Z,25.50
2018-01-29T13:51:53.370Z,25.80
2018-01-29T13:54:21.785Z,26.20
2018-01-29T13:56:51.261Z,27.00
2018-01-29T13:59:19.884Z,27.00
2018-01-29T14:01:49.059Z,28.10
2018-01-29T14:04:16.836Z,28.10
2018-01-29T14:06:45.224Z,30.70
2018-01-29T14:09:13.625Z,31.30
2018-01-29T14:11:42.865Z,32.40
2018-01-29T14:14:11.344Z,32.30
2018-01-29T14:16:40.493Z,33.20
2018-01-29T14:19:09.662Z,35.30
2018-01-29T14:21:38.049Z,35.30
2018-01-29T14:24:06.429Z,35.60
2018-01-29T14:26:34.829Z,35.90
2018-01-29T14:29:03.641Z,37.70
2018-01-29T14:31:32.016Z,37.60
2018-01-29T14:34:01.228Z,37.80
2018-01-29T14:36:29.776Z,37.70
2018-01-29T14:38:57.485Z,38.60
2018-01-29T14:41:25.952Z,41.10
2018-01-29T14:43:54.320Z,40.60
2018-01-29T14:46:23.453Z,41.00
2018-01-29T14:48:51.838Z,40.90
2018-01-29T14:51:20.213Z,41.60
2018-01-29T14:53:48.596Z,41.30
2018-01-29T14:56:16.985Z,42.60
2018-01-29T14:58:45.363Z,43.50
2018-01-29T15:01:13.792Z,45.40
2018-01-29T15:03:41.721Z,48.30
2018-01-29T15:06:10.114Z,50.60
2018-01-29T15:08:38.517Z,52.70
2018-01-29T15:11:07.661Z,57.10
2018-01-29T15:13:35.930Z,57.10
2018-01-29T15:16:03.857Z,57.50
2018-01-29T15:18:33.068Z,60.60
2018-01-29T15:21:01.577Z,60.60
2018-01-29T15:23:30.037Z,60.00
2018-01-29T15:25:58.511Z,61.10
2018-01-29T15:28:27.717Z,64.60
2018-01-29T15:30:56.138Z,64.60
2018-01-29T15:33:25.124Z,66.10
2018-01-29T15:35:53.551Z,68.40
2018-01-29T15:38:22.731Z,69.70
2018-01-29T15:40:51.179Z,69.70
2018-01-29T15:43:19.581Z,70.50
2018-01-29T15:45:48.007Z,70.20
2018-01-29T15:48:17.214Z,71.10
2018-01-29T15:50:45.904Z,70.90
2018-01-29T15:53:15.077Z,73.20
2018-01-29T15:55:43.524Z,72.80
2018-01-29T15:58:12.212Z,75.00
2018-01-29T16:00:40.895Z,75.00
2018-01-29T16:03:09.583Z,75.60
2018-01-29T16:05:38.244Z,76.10
2018-01-29T16:08:07.668Z,75.70
2018-01-29T16:10:37.101Z,75.90
2018-01-29T16:13:05.760Z,75.80
2018-01-29T16:15:34.561Z,76.20
2018-01-29T16:18:03.237Z,76.80
2018-01-29T16:20:31.890Z,77.70
2018-01-29T16:23:00.566Z,79.00
2018-01-29T16:25:29.245Z,78.90
2018-01-29T16:27:57.925Z,77.80
2018-01-29T16:30:26.597Z,79.50
2018-01-29T16:32:55.257Z,79.60
2018-01-29T16:35:23.929Z,81.30
2018-01-29T16:37:53.351Z,81.50
2018-01-29T16:40:22.030Z,81.40
2018-01-29T16:42:50.921Z,81.80
2018-01-29T16:45:20.343Z,81.30
2018-01-29T16:47:48.999Z,81.30
2018-01-29T16:50:18.421Z,81.30
2018-01-29T16:52:47.091Z,81.30
2018-01-29T16:55:15.776Z,81.60
2018-01-29T16:57:45.248Z,82.60
2018-01-29T17:00:13.909Z,82.60
2018-01-29T17:02:42.550Z,83.30
2018-01-29T17:05:11.079Z,84.40
2018-01-29T17:07:39.752Z,83.30
2018-01-29T17:10:08.418Z,84.30
2018-01-29T17:15:12.200Z,84.20
2018-01-29T17:17:41.129Z,84.70
2018-01-29T17:20:10.241Z,85.00
2018-01-29T17:22:38.376Z,85.00
2018-01-29T17:25:07.106Z,86.70
2018-01-29T17:27:36.157Z,86.10
2018-01-29T17:30:04.501Z,86.00
2018-01-29T17:32:34.445Z,86.20
2018-01-29T17:35:03.130Z,86.40
2018-01-29T17:37:31.812Z,86.30
2018-01-29T17:40:00.456Z,86.30
2018-01-29T17:42:29.856Z,86.70
2018-01-29T17:44:59.304Z,87.50
2018-01-29T17:47:27.941Z,87.50
2018-01-29T17:49:57.364Z,86.40
2018-01-29T17:52:26.029Z,86.40
2018-01-29T17:54:55.426Z,87.40
2018-01-29T17:57:24.053Z,87.60
2018-01-29T17:59:52.809Z,87.30
2018-01-29T18:02:22.203Z,87.40
2018-01-29T18:04:50.838Z,87.40
2018-01-29T18:07:19.177Z,87.70
2018-01-29T18:09:48.573Z,87.20
2018-01-29T18:12:17.252Z,87.20
2018-01-29T18:14:45.885Z,88.20
2018-01-29T18:17:14.523Z,88.70
2018-01-29T18:19:43.185Z,89.80
2018-01-29T18:22:11.857Z,89.00
2018-01-29T18:24:40.504Z,88.90
2018-01-29T18:27:09.189Z,89.00
2018-01-29T18:29:43.241Z,90.10
2018-01-29T18:32:12.262Z,90.10
2018-01-29T18:34:40.908Z,89.70
2018-01-29T18:37:09.553Z,89.80
2018-01-29T18:39:39.058Z,89.10
2018-01-29T18:42:07.895Z,89.10
2018-01-29T18:44:36.544Z,89.90
2018-01-29T18:47:06.160Z,88.80
2018-01-29T18:49:35.625Z,88.70
2018-01-29T18:52:04.265Z,88.70
2018-01-29T18:54:32.953Z,89.50
2018-01-29T18:57:01.603Z,88.80
2018-01-29T18:59:30.257Z,88.20
2018-01-29T19:01:58.921Z,88.10
2018-01-29T19:04:27.568Z,87.60
2018-01-29T19:06:56.051Z,87.10
2018-01-29T19:09:25.499Z,87.30
2018-01-29T19:11:53.493Z,87.30
2018-01-29T19:14:22.141Z,87.90
2018-01-29T19:16:50.812Z,88.70
2018-01-29T19:19:20.216Z,88.60
2018-01-29T19:21:49.616Z,87.40
2018-01-29T19:24:18.275Z,87.40
2018-01-29T19:26:46.922Z,86.50
2018-01-29T19:29:15.576Z,86.40
2018-01-29T19:31:45.013Z,87.10
2018-01-29T19:34:13.646Z,87.10
2018-01-29T19:36:42.302Z,87.20
2018-01-29T19:39:10.977Z,86.80
2018-01-29T19:41:39.617Z,85.50
2018-01-29T19:44:08.270Z,86.60
2018-01-29T19:46:37.126Z,85.50
2018-01-29T19:49:05.940Z,85.40
2018-01-29T19:51:34.570Z,85.60
2018-01-29T19:54:03.292Z,86.10
2018-01-29T19:56:31.636Z,86.00
2018-01-29T19:59:01.038Z,86.90
2018-01-29T20:01:30.476Z,86.80
2018-01-29T20:03:59.108Z,86.80
2018-01-29T20:06:27.762Z,86.50
2018-01-29T20:08:56.549Z,85.70
2018-01-29T20:11:25.184Z,86.80
2018-01-29T20:13:53.845Z,86.70
2018-01-29T20:16:22.506Z,86.70
2018-01-29T20:18:51.135Z,85.90
2018-01-29T20:21:19.768Z,87.10
2018-01-29T20:23:48.421Z,87.20
2018-01-29T20:26:17.052Z,87.20
2018-01-29T20:28:45.682Z,87.10
2018-01-29T20:31:14.526Z,85.80
2018-01-29T20:33:43.189Z,84.90
2018-01-29T20:36:12.663Z,86.30
2018-01-29T20:38:41.533Z,86.20
2018-01-29T20:41:10.171Z,85.50
2018-01-29T20:43:38.897Z,85.40
2018-01-29T20:46:07.569Z,85.50
2018-01-29T20:48:36.212Z,85.40
2018-01-29T20:51:04.937Z,86.00
2018-01-29T20:53:34.045Z,85.00
2018-01-29T20:56:03.707Z,83.10
2018-01-29T20:58:32.343Z,83.10
2018-01-29T21:01:01.025Z,81.90
2018-01-29T21:03:29.653Z,81.50
2018-01-29T21:05:58.317Z,82.30
2018-01-29T21:08:26.969Z,82.40
2018-01-29T21:10:55.601Z,83.10
2018-01-29T21:13:24.229Z,83.10
2018-01-29T21:15:53.656Z,82.10
2018-01-29T21:18:22.285Z,82.10
2018-01-29T21:20:50.932Z,82.50
2018-01-29T21:23:19.592Z,81.70
2018-01-29T21:25:48.985Z,80.20
2018-01-29T21:28:18.388Z,79.70
2018-01-29T21:30:47.828Z,78.50
2018-01-29T21:33:16.462Z,78.50
2018-01-29T21:35:44.778Z,75.40
2018-01-29T21:38:13.421Z,74.50
2018-01-29T21:40:45.681Z,73.00
2018-01-29T21:43:15.533Z,71.20
2018-01-29T21:45:44.214Z,71.20
2018-01-29T21:48:13.616Z,70.60
2018-01-29T21:50:43.045Z,69.10
2018-01-29T21:53:11.669Z,68.90
2018-01-29T21:55:40.315Z,68.60
2018-01-29T21:58:09.976Z,69.90
2018-01-29T22:00:38.620Z,69.90
2018-01-29T22:03:07.284Z,70.20
2018-01-29T22:05:36.745Z,67.80
2018-01-29T22:08:06.223Z,66.10
2018-01-29T22:10:35.012Z,66.10
2018-01-29T22:13:03.673Z,65.40
2018-01-29T22:15:32.324Z,65.30
2018-01-29T22:18:00.965Z,65.90
2018-01-29T22:20:29.280Z,65.50
2018-01-29T22:22:59.934Z,64.80
2018-01-29T22:25:29.261Z,63.90
2018-01-29T22:27:58.684Z,64.90
2018-01-29T22:30:27.332Z,64.90
2018-01-29T22:32:55.985Z,66.60
2018-01-29T22:35:24.816Z,67.90
2018-01-29T22:37:54.317Z,69.20
2018-01-29T22:40:23.801Z,69.20
2018-01-29T22:42:55.666Z,69.90
2018-01-29T22:45:24.357Z,69.40
2018-01-29T22:47:56.193Z,70.20
2018-01-29T22:50:24.188Z,71.00
2018-01-29T22:52:52.821Z,71.20
2018-01-29T22:55:21.453Z,70.40
2018-01-29T22:57:50.116Z,70.20
2018-01-29T23:00:18.952Z,70.00
2018-01-29T23:02:47.596Z,66.60
2018-01-29T23:05:16.268Z,64.20
2018-01-29T23:07:44.908Z,62.40
2018-01-29T23:10:13.537Z,61.00
2018-01-29T23:12:42.181Z,60.70
2018-01-29T23:15:10.849Z,59.90
2018-01-29T23:17:39.494Z,59.40
2018-01-29T23:20:08.138Z,59.30
2018-01-29T23:22:36.768Z,59.10
2018-01-29T23:25:05.393Z,58.30
2018-01-29T23:27:34.046Z,57.80
2018-01-29T23:30:02.689Z,57.70
2018-01-29T23:32:32.101Z,58.80
2018-01-29T23:35:01.516Z,59.90
2018-01-29T23:37:29.489Z,59.90
2018-01-29T23:39:58.121Z,60.90
2018-01-29T23:42:26.777Z,61.80
2018-01-29T23:44:55.396Z,61.20
2018-01-29T23:47:24.040Z,61.60
2018-01-29T23:49:52.700Z,62.70
2018-01-29T23:52:21.345Z,63.50
2018-01-29T23:54:49.992Z,64.50
2018-01-29T23:57:18.668Z,65.40
2018-01-29T23:59:48.068Z,68.30
